Bellambi, New South Wales

6:03 AM AEDT on November 27, 2014 (GMT +1100)
Towradgi | Change Station
CLOSE
Current Station
Personal Weather Station
Location: Fairy Meadow, NEW SOUTH WALES
Elevation: 33 ft
Nearby Weather Stations

Elev 33 ft 34.39 °S, 150.90 °E | Updated 2 minutes ago

Rain
Rain
61.5 °F
Feels Like 61.5 °F
N
0.0
Wind Variable Wind from SW
Gusts 7.0 mph

Today
High -- | Low -- °F
--% Chance of Precip.
Yesterday
High -- | Low -- °F
Precip. -- in
5:38 AM 7:49 PM
Waxing Crescent, 22% visible
Pressure 30.09 in
Visibility 6.2 miles
Clouds Scattered Clouds 1700 ft
Mostly Cloudy 2400 ft
Mostly Cloudy 3500 ft
Dew Point 59 °F
Humidity 91%
Rainfall 0.72 in
Snow Depth Not available.
UV 0 out of 12
Pollen Not available.
Air Quality Not available.
Flu Activity Not available.
METAR YSRI 261900Z AUTO 19009KT 9999 // SCT017 BKN024 BKN035 19/16 Q1019

More Conditions Fewer Conditions

Pressure 30.09 in
Visibility 6.2 miles
Clouds Scattered Clouds 1700 ft
Mostly Cloudy 2400 ft
Mostly Cloudy 3500 ft
Dew Point 59 °F
Humidity 91%
Rainfall 0.72 in
Snow Depth Not available.
UV 0 out of 12
Pollen Not available.
Air Quality Not available.
Flu Activity Not available.
METAR YSRI 261900Z AUTO 19009KT 9999 // SCT017 BKN024 BKN035 19/16 Q1019

More Conditions Fewer Conditions

10-Day Weather Forecast

Almanac

Astronomy

Nov. 27, 2014 Rise Set
Actual Time
Civil Twilight
Nautical Twilight
Astronomical Twilight
Moon
Length of Visible Light
Length of Day
Tomorrow will be .
, % of the Moon is Illuminated

Today's Extremes

Country Highs Country Lows

Community

WunderPhotos

Upload Photos

1,773,831 photos uploaded!

WunderBlogs® & News

Nearby

Air Quality

  Air Quality AQ Index Pollutant
Not available.

Snow Depth

Station Depth Elevation

Earthquake Activity

City Distance Mag. Time & Date
Minimum magnitude displayed is 2.5.

Coastal Water Temperatures

Place Temperature

Nearby Weather Stations